Time;durP1;ratioP1;P1;durP2;ratioP2;P2;SDS_P1;SDS_P2;PMS_P1;PMS_P2;Temp;Humidity;BMP_temperature;BMP_pressure;BME280_temperature;BME280_humidity;BME280_pressure;Samples;Min_cycle;Max_cycle;Signal;HPM_P1;HPM_P2
2021/10/13 00:01:20;;;;;;;4.85;1.85;;;;;;;14.37;47.16;102075.78;5041530;28;20028;-58
2021/10/13 00:03:46;;;;;;;7.00;1.88;;;;;;;14.38;47.12;102079.31;5042271;28;20025;-58
2021/10/13 00:06:11;;;;;;;3.78;1.55;;;;;;;14.35;46.82;102082.28;5043658;28;20426;-58
2021/10/13 00:08:36;;;;;;;3.90;1.63;;;;;;;14.33;47.14;102093.16;5040387;28;20021;-59
2021/10/13 00:11:02;;;;;;;4.97;1.80;;;;;;;14.30;47.88;102079.91;5016161;28;20017;-58
2021/10/13 00:13:27;;;;;;;4.50;2.05;;;;;;;14.28;47.97;102092.66;5007564;28;20032;-59
2021/10/13 00:15:53;;;;;;;6.38;2.88;;;;;;;14.29;47.76;102099.72;5025285;28;20471;-58
2021/10/13 00:18:18;;;;;;;4.75;2.15;;;;;;;14.27;46.60;102092.75;5023603;28;20448;-58
2021/10/13 00:20:44;;;;;;;4.80;1.73;;;;;;;14.22;47.00;102087.75;5042507;28;20036;-58
2021/10/13 00:23:10;;;;;;;3.03;1.40;;;;;;;14.26;48.17;102097.31;5042716;28;20105;-58
2021/10/13 00:25:36;;;;;;;3.33;1.50;;;;;;;14.26;48.02;102091.06;5041240;28;20018;-58
2021/10/13 00:28:01;;;;;;;1.98;1.25;;;;;;;14.26;47.92;102093.75;5042344;28;20120;-59
2021/10/13 00:30:27;;;;;;;4.13;1.45;;;;;;;14.29;47.44;102109.69;5024636;28;20450;-58
2021/10/13 00:32:53;;;;;;;1.98;1.20;;;;;;;14.31;47.50;102097.78;5042061;28;20013;-58
2021/10/13 00:35:18;;;;;;;4.97;1.13;;;;;;;14.33;48.18;102095.00;5046303;28;20473;-58
2021/10/13 00:37:43;;;;;;;2.83;1.05;;;;;;;14.34;48.03;102086.81;5046600;28;20017;-58
2021/10/13 00:40:09;;;;;;;2.80;1.13;;;;;;;14.36;47.97;102087.53;5046213;28;20025;-58
2021/10/13 00:42:35;;;;;;;4.38;1.38;;;;;;;14.32;48.32;102067.19;5044259;28;20164;-58
2021/10/13 00:45:00;;;;;;;5.55;1.20;;;;;;;14.36;47.16;102083.97;5045707;28;20150;-58
2021/10/13 00:47:25;;;;;;;3.35;1.42;;;;;;;14.37;48.51;102085.69;5045532;28;20025;-58
2021/10/13 00:49:51;;;;;;;4.97;1.20;;;;;;;14.36;47.86;102084.84;5047122;28;20033;-58
2021/10/13 00:52:17;;;;;;;4.70;1.13;;;;;;;14.34;47.19;102097.59;5036598;28;20500;-58
2021/10/13 00:54:44;;;;;;;3.13;1.35;;;;;;;14.35;48.12;102095.75;5026034;28;20026;-58
2021/10/13 00:57:09;;;;;;;2.05;1.00;;;;;;;14.34;47.70;102097.59;5024551;28;20021;-58
2021/10/13 00:59:35;;;;;;;5.00;0.88;;;;;;;14.34;48.25;102108.38;5008177;28;20028;-58
2021/10/13 01:02:05;;;;;;;3.10;1.38;;;;;;;14.38;48.32;102109.81;5024449;28;20053;-58
2021/10/13 01:04:58;;;;;;;3.35;1.42;;;;;;;14.40;48.00;102117.81;5009704;28;20527;-58
2021/10/13 01:07:36;;;;;;;3.97;1.63;;;;;;;14.42;48.51;102111.31;5036140;28;20029;-58
2021/10/13 01:10:49;;;;;;;3.53;1.35;;;;;;;14.47;48.33;102108.22;5036184;28;20029;-58
2021/10/13 01:13:26;;;;;;;5.63;1.38;;;;;;;14.50;48.20;102098.06;4948801;28;20448;-58
2021/10/13 01:16:24;;;;;;;2.60;1.67;;;;;;;14.55;47.42;102090.47;5018700;28;20025;-58
2021/10/13 01:18:53;;;;;;;5.40;1.45;;;;;;;14.58;47.52;102089.34;5018150;28;20026;-58
2021/10/13 01:21:49;;;;;;;5.95;1.60;;;;;;;14.62;47.33;102090.84;5018191;28;20113;-58
2021/10/13 01:24:27;;;;;;;6.07;1.52;;;;;;;14.62;48.69;102090.84;5035472;28;20020;-58
2021/10/13 01:27:04;;;;;;;6.53;1.88;;;;;;;14.63;47.50;102083.59;5035972;28;20445;-59
2021/10/13 01:29:30;;;;;;;2.25;1.35;;;;;;;14.61;48.66;102088.25;5035912;28;20029;-58
2021/10/13 01:32:03;;;;;;;2.00;1.17;;;;;;;14.65;48.12;102090.59;5017955;28;20582;-58
2021/10/13 01:34:33;;;;;;;3.88;1.13;;;;;;;14.69;47.17;102097.44;5017969;28;20452;-58
2021/10/13 01:37:02;;;;;;;5.72;1.63;;;;;;;14.69;48.34;102096.56;5008851;28;20021;-58
2021/10/13 01:39:28;;;;;;;5.18;1.75;;;;;;;14.70;48.59;102109.09;5032240;28;20025;-58
2021/10/13 01:41:55;;;;;;;2.85;1.40;;;;;;;14.71;47.39;102105.41;5038023;28;20055;-58
2021/10/13 01:44:22;;;;;;;4.15;1.30;;;;;;;14.70;47.30;102095.59;5055565;28;20029;-58
2021/10/13 01:46:48;;;;;;;7.25;2.15;;;;;;;14.71;47.81;102100.03;5037689;28;20029;-58
2021/10/13 01:49:14;;;;;;;9.07;3.17;;;;;;;14.69;48.05;102101.97;5055714;28;20087;-58
2021/10/13 01:51:44;;;;;;;3.80;1.60;;;;;;;14.67;48.46;102096.69;5037844;28;20473;-58
2021/10/13 01:54:10;;;;;;;7.20;2.00;;;;;;;14.64;48.97;102090.69;5037635;28;20025;-58
2021/10/13 01:56:37;;;;;;;4.70;2.08;;;;;;;14.74;47.37;102105.16;5037572;28;20075;-58
2021/10/13 01:59:06;;;;;;;5.65;1.80;;;;;;;14.75;48.30;102106.84;5055637;28;20473;-58
2021/10/13 02:01:32;;;;;;;6.40;2.20;;;;;;;14.78;48.19;102106.63;5037270;28;20108;-58
2021/10/13 02:04:01;;;;;;;5.15;1.85;;;;;;;14.79;47.71;102114.59;5037184;28;20029;-58
2021/10/13 02:06:28;;;;;;;4.00;1.70;;;;;;;14.80;48.94;102110.91;5037563;28;20084;-58
2021/10/13 02:08:53;;;;;;;6.00;1.75;;;;;;;14.82;48.06;102113.50;5037543;28;20025;-59
2021/10/13 02:11:22;;;;;;;4.68;1.60;;;;;;;14.80;49.09;102110.03;5037556;28;20021;-58
2021/10/13 02:13:49;;;;;;;3.30;1.60;;;;;;;14.79;47.83;102108.34;5055141;28;20033;-58
2021/10/13 02:16:14;;;;;;;5.50;2.28;;;;;;;14.79;48.35;102109.22;5036741;28;20025;-58
2021/10/13 02:18:40;;;;;;;8.27;2.10;;;;;;;14.79;48.50;102109.22;5037435;28;20112;-59
2021/10/13 02:21:06;;;;;;;4.93;1.85;;;;;;;14.84;47.74;102116.91;5055157;28;20036;-58
2021/10/13 02:23:33;;;;;;;2.25;1.75;;;;;;;14.86;48.86;102114.94;5036852;28;20071;-58
2021/10/13 02:26:03;;;;;;;5.70;2.17;;;;;;;14.84;48.46;102111.50;5054947;28;20025;-58
2021/10/13 02:28:38;;;;;;;4.07;1.52;;;;;;;14.88;48.29;102118.38;5037045;28;20052;-58
2021/10/13 02:31:03;;;;;;;4.50;2.75;;;;;;;14.91;48.55;102123.50;5036872;28;20024;-58
2021/10/13 02:33:29;;;;;;;3.75;2.22;;;;;;;14.93;47.38;102126.97;5054605;28;20469;-58
2021/10/13 02:35:54;;;;;;;5.75;2.33;;;;;;;14.95;48.48;102119.59;5054806;28;20021;-59
2021/10/13 02:38:20;;;;;;;5.20;2.38;;;;;;;14.97;48.31;102126.56;5036893;28;20035;-58
2021/10/13 02:40:45;;;;;;;7.63;2.25;;;;;;;14.94;48.19;102126.81;5054789;28;20149;-59
2021/10/13 02:43:11;;;;;;;2.97;1.92;;;;;;;14.98;47.43;102136.38;5036668;28;20032;-58
2021/10/13 02:45:38;;;;;;;5.15;2.67;;;;;;;15.00;47.72;102145.22;5054433;28;20369;-58
2021/10/13 02:48:15;;;;;;;8.32;2.60;;;;;;;15.01;48.99;102152.34;5036945;28;20073;-58
2021/10/13 02:51:07;;;;;;;5.55;2.70;;;;;;;15.01;47.76;102146.06;5036994;28;20020;-58
2021/10/13 02:53:44;;;;;;;5.28;2.72;;;;;;;15.02;47.43;102148.63;5055128;28;20035;-58
2021/10/13 02:56:23;;;;;;;4.55;2.35;;;;;;;15.03;48.21;102144.09;5053850;28;20044;-58
2021/10/13 02:59:06;;;;;;;4.97;2.72;;;;;;;15.02;49.01;102147.75;5054940;28;20028;-59
2021/10/13 03:01:46;;;;;;;7.65;2.50;;;;;;;15.01;47.65;102146.06;5032026;28;20438;-58
2021/10/13 03:04:28;;;;;;;7.72;2.40;;;;;;;14.99;49.11;102143.47;5041151;28;20474;-58
2021/10/13 03:07:05;;;;;;;8.50;2.58;;;;;;;14.99;47.75;102142.66;5023733;28;20026;-58
2021/10/13 03:09:33;;;;;;;4.82;2.30;;;;;;;14.94;48.37;102139.44;5039368;28;20064;-58
2021/10/13 03:12:01;;;;;;;10.27;3.08;;;;;;;14.95;48.31;102143.88;5019909;28;20021;-58
2021/10/13 03:14:28;;;;;;;8.82;3.05;;;;;;;14.96;49.20;102149.13;5037680;28;20033;-59
2021/10/13 03:16:55;;;;;;;5.72;2.85;;;;;;;14.95;47.41;102141.16;5002849;28;20111;-59
2021/10/13 03:19:43;;;;;;;4.80;3.00;;;;;;;14.96;48.30;102146.44;5019789;28;20025;-58
2021/10/13 03:22:09;;;;;;;4.97;2.55;;;;;;;14.97;47.68;102150.00;5037599;28;20022;-59
2021/10/13 03:24:34;;;;;;;6.93;2.67;;;;;;;14.96;48.19;102153.69;5037351;28;20104;-58
2021/10/13 03:27:03;;;;;;;9.70;3.40;;;;;;;14.99;48.22;102158.84;5036806;28;20056;-58
2021/10/13 03:29:29;;;;;;;5.13;2.95;;;;;;;14.98;48.80;102151.72;5019111;28;20022;-59
2021/10/13 03:31:55;;;;;;;7.72;3.00;;;;;;;14.99;48.51;102148.88;5036528;28;20127;-58
2021/10/13 03:34:23;;;;;;;8.48;3.33;;;;;;;15.01;49.11;102149.63;5037153;28;20025;-59
2021/10/13 03:36:51;;;;;;;7.20;3.17;;;;;;;15.03;48.42;102142.25;5019489;28;20036;-59
2021/10/13 03:39:18;;;;;;;4.20;2.97;;;;;;;15.03;48.49;102136.00;5037376;28;20037;-59
2021/10/13 03:41:46;;;;;;;5.90;2.40;;;;;;;15.07;49.34;102150.97;5019687;28;20494;-58
2021/10/13 03:44:12;;;;;;;7.10;2.97;;;;;;;15.09;48.37;102155.25;5037827;28;20022;-58
2021/10/13 03:46:43;;;;;;;5.63;3.22;;;;;;;15.12;49.40;102160.41;5036597;28;20041;-58
2021/10/13 03:49:11;;;;;;;10.55;3.28;;;;;;;15.13;48.96;102156.69;5037495;28;20488;-57
2021/10/13 03:51:40;;;;;;;5.13;3.30;;;;;;;15.14;47.84;102162.97;5037043;28;20079;-58
2021/10/13 03:54:07;;;;;;;5.65;3.35;;;;;;;15.13;48.17;102169.38;5036307;28;20032;-59
2021/10/13 03:56:32;;;;;;;4.47;2.90;;;;;;;15.12;48.71;102164.94;5002845;28;20057;-59
2021/10/13 03:58:58;;;;;;;11.93;3.33;;;;;;;15.13;49.06;102167.50;5016143;28;20094;-58
2021/10/13 04:01:24;;;;;;;4.57;3.63;;;;;;;15.13;48.27;102177.47;5033715;28;20030;-58
2021/10/13 04:03:49;;;;;;;11.85;3.17;;;;;;;15.13;47.78;102174.75;5034892;28;20027;-58
2021/10/13 04:06:15;;;;;;;6.07;3.40;;;;;;;15.11;48.77;102179.41;5033805;28;20059;-58
2021/10/13 04:08:40;;;;;;;4.22;2.88;;;;;;;15.14;47.83;102184.56;5019647;28;20065;-58
2021/10/13 04:11:05;;;;;;;4.95;3.20;;;;;;;15.08;49.26;102174.25;5037462;28;20033;-58
2021/10/13 04:13:31;;;;;;;7.25;3.70;;;;;;;15.11;48.38;102182.09;5019891;28;20145;-58
2021/10/13 04:15:56;;;;;;;6.95;3.47;;;;;;;15.10;49.43;102183.09;5036971;28;20052;-58
2021/10/13 04:18:22;;;;;;;10.65;3.90;;;;;;;15.10;47.53;102180.41;5037267;28;20084;-58
2021/10/13 04:20:47;;;;;;;11.55;3.20;;;;;;;15.11;48.02;102184.81;5037402;28;20113;-58
2021/10/13 04:23:12;;;;;;;12.60;3.83;;;;;;;15.10;47.58;102177.72;5037269;28;20030;-58
2021/10/13 04:25:38;;;;;;;7.03;3.40;;;;;;;15.03;49.02;102166.56;5037240;28;20079;-58
2021/10/13 04:28:03;;;;;;;5.07;3.10;;;;;;;15.11;48.16;102179.41;5003101;28;20040;-58
2021/10/13 04:30:29;;;;;;;8.73;3.95;;;;;;;15.13;49.41;102188.25;5036781;28;20030;-58
2021/10/13 04:32:54;;;;;;;11.10;3.63;;;;;;;15.12;47.88;102189.22;5037399;28;20025;-58
2021/10/13 04:35:20;;;;;;;7.18;3.30;;;;;;;15.14;47.88;102189.97;5036834;28;20021;-58
2021/10/13 04:37:45;;;;;;;6.63;3.40;;;;;;;15.15;48.63;102183.59;5037092;28;20096;-58
2021/10/13 04:40:11;;;;;;;6.38;2.97;;;;;;;15.16;48.77;102193.38;5037085;28;20029;-58
2021/10/13 04:42:36;;;;;;;8.00;3.72;;;;;;;15.18;49.14;102194.13;5037055;28;20030;-58
2021/10/13 04:45:01;;;;;;;4.90;3.63;;;;;;;15.19;48.65;102193.13;5037011;28;20390;-59
2021/10/13 04:47:27;;;;;;;4.93;3.38;;;;;;;15.20;47.84;102189.47;5036850;28;20448;-58
2021/10/13 04:49:52;;;;;;;6.60;3.88;;;;;;;15.22;47.73;102194.72;5036546;28;20033;-59
2021/10/13 04:52:18;;;;;;;6.88;3.20;;;;;;;15.22;49.30;102197.41;5036635;28;20021;-58
2021/10/13 04:54:43;;;;;;;6.13;3.33;;;;;;;15.23;47.65;102197.31;5036505;28;20028;-58
2021/10/13 04:57:09;;;;;;;10.45;3.70;;;;;;;15.23;48.90;102194.63;5036582;28;20028;-58
2021/10/13 04:59:34;;;;;;;8.50;3.25;;;;;;;15.24;48.95;102185.53;5036575;28;20029;-58
2021/10/13 05:02:00;;;;;;;9.05;3.72;;;;;;;15.26;49.35;102180.88;5037053;28;20026;-58
2021/10/13 05:04:25;;;;;;;7.22;3.47;;;;;;;15.28;48.21;102192.38;5037435;28;20109;-59
2021/10/13 05:06:50;;;;;;;6.25;2.95;;;;;;;15.27;48.39;102182.56;5037089;28;20025;-58
2021/10/13 05:09:16;;;;;;;7.18;3.70;;;;;;;15.30;48.87;102179.59;5036779;28;20036;-58
2021/10/13 05:11:42;;;;;;;8.52;3.28;;;;;;;15.31;49.26;102186.72;5018446;28;20033;-58
2021/10/13 05:14:07;;;;;;;7.45;3.55;;;;;;;15.32;47.85;102193.00;5035988;28;20037;-58
2021/10/13 05:16:33;;;;;;;6.47;3.65;;;;;;;15.31;48.86;102189.44;5018531;28;20137;-58
2021/10/13 05:18:58;;;;;;;7.20;3.15;;;;;;;15.32;49.10;102199.25;5035221;28;20137;-58
2021/10/13 05:21:24;;;;;;;6.70;3.72;;;;;;;15.32;48.74;102201.09;5036301;28;20033;-58
2021/10/13 05:23:49;;;;;;;8.07;3.92;;;;;;;15.32;48.64;102215.47;5036121;28;20029;-58
2021/10/13 05:26:14;;;;;;;8.80;4.07;;;;;;;15.32;49.24;102204.66;5035819;28;20025;-58
2021/10/13 05:28:40;;;;;;;6.90;3.45;;;;;;;15.33;48.67;102213.59;5036525;28;20052;-58
2021/10/13 05:31:08;;;;;;;7.20;3.42;;;;;;;15.32;49.33;102204.66;5036497;28;20032;-58
2021/10/13 05:33:34;;;;;;;14.48;3.80;;;;;;;15.32;47.71;102210.06;5036037;28;20058;-58
2021/10/13 05:35:59;;;;;;;7.57;2.95;;;;;;;15.32;48.65;102212.75;5036235;28;20030;-58
2021/10/13 05:38:25;;;;;;;8.98;3.38;;;;;;;15.32;49.22;102210.06;5039628;28;20040;-58
2021/10/13 05:40:50;;;;;;;5.78;3.50;;;;;;;15.31;48.60;102202.06;5018852;28;20037;-58
2021/10/13 05:43:15;;;;;;;6.85;3.53;;;;;;;15.34;47.95;102208.09;5036841;28;20025;-59
2021/10/13 05:45:41;;;;;;;9.88;3.60;;;;;;;15.33;48.06;102214.47;5036798;28;20462;-58
2021/10/13 05:48:06;;;;;;;7.45;4.10;;;;;;;15.34;48.12;102220.72;5036881;28;20037;-58
2021/10/13 05:50:32;;;;;;;4.82;3.67;;;;;;;15.36;48.91;102225.00;5036219;28;20029;-59
2021/10/13 05:52:57;;;;;;;8.43;3.60;;;;;;;15.36;48.21;102227.72;5035932;28;20088;-58
2021/10/13 05:55:22;;;;;;;9.20;3.85;;;;;;;15.36;49.03;102238.50;5020041;28;20513;-58
2021/10/13 05:57:48;;;;;;;6.22;3.83;;;;;;;15.36;48.21;102237.66;5034719;28;20116;-58
2021/10/13 06:00:14;;;;;;;8.50;3.53;;;;;;;15.37;49.33;102240.25;5036075;28;20037;-59
2021/10/13 06:02:39;;;;;;;7.53;3.70;;;;;;;15.35;49.27;102242.22;5035458;28;20123;-58
2021/10/13 06:05:05;;;;;;;6.80;3.13;;;;;;;15.39;48.22;102240.09;5035848;28;20036;-58
2021/10/13 06:07:31;;;;;;;8.38;3.88;;;;;;;15.39;49.27;102235.56;5035530;28;20497;-58
2021/10/13 06:09:56;;;;;;;11.40;3.92;;;;;;;15.39;48.17;102238.25;5035917;28;20034;-58
2021/10/13 06:12:22;;;;;;;6.07;3.42;;;;;;;15.43;48.68;102242.44;5018147;28;20053;-58
2021/10/13 06:14:47;;;;;;;6.80;4.00;;;;;;;15.45;49.17;102242.31;5035406;28;20017;-58
2021/10/13 06:17:12;;;;;;;11.52;4.05;;;;;;;15.47;49.17;102245.75;5035407;28;20032;-58
2021/10/13 06:19:38;;;;;;;7.95;4.18;;;;;;;15.49;48.88;102249.22;5035299;28;20025;-58
2021/10/13 06:22:03;;;;;;;7.88;3.58;;;;;;;15.50;48.84;102253.59;5035081;28;20033;-58
2021/10/13 06:24:28;;;;;;;5.72;3.45;;;;;;;15.54;49.29;102257.78;5035440;28;20097;-58
2021/10/13 06:26:54;;;;;;;7.10;3.33;;;;;;;15.55;48.57;102256.81;5035146;28;20108;-58
2021/10/13 06:29:19;;;;;;;11.45;3.20;;;;;;;15.58;48.97;102270.91;5034793;28;20021;-58
2021/10/13 06:31:44;;;;;;;8.77;3.67;;;;;;;15.60;48.61;102273.50;5033802;28;20021;-59
2021/10/13 06:34:10;;;;;;;6.88;3.70;;;;;;;15.61;48.83;102276.06;5035100;28;20100;-58
2021/10/13 06:36:36;;;;;;;9.52;3.88;;;;;;;15.63;48.85;102276.78;5034291;28;20077;-58
2021/10/13 06:39:01;;;;;;;9.43;4.10;;;;;;;15.64;49.04;102275.81;5034686;28;20355;-58
2021/10/13 06:41:28;;;;;;;9.48;4.55;;;;;;;15.68;48.83;102280.00;5034708;28;20033;-58
2021/10/13 06:43:54;;;;;;;7.32;4.47;;;;;;;15.69;47.88;102280.81;5034941;28;20536;-58
2021/10/13 06:46:19;;;;;;;5.90;4.03;;;;;;;15.72;49.53;102280.56;5034736;28;20026;-58
2021/10/13 06:48:45;;;;;;;8.95;3.83;;;;;;;15.76;48.33;102283.88;5034795;28;20450;-58
2021/10/13 06:51:10;;;;;;;12.55;4.22;;;;;;;15.78;48.73;102285.47;5034691;28;20537;-58
2021/10/13 06:53:36;;;;;;;10.57;3.63;;;;;;;15.81;47.92;102287.91;5034626;28;20029;-58
2021/10/13 06:56:03;;;;;;;8.00;3.22;;;;;;;15.85;47.89;102293.94;5034809;28;20106;-58
2021/10/13 06:58:28;;;;;;;7.07;3.85;;;;;;;15.87;49.00;102300.06;5034390;28;20025;-58
2021/10/13 07:00:53;;;;;;;11.57;4.80;;;;;;;15.88;49.13;102299.94;5017016;28;20021;-58
2021/10/13 07:03:19;;;;;;;11.32;4.43;;;;;;;15.91;47.84;102298.84;5034270;28;20028;-59
2021/10/13 07:05:44;;;;;;;5.60;3.67;;;;;;;15.93;47.65;102300.41;5034522;28;20398;-58
2021/10/13 07:08:10;;;;;;;7.00;3.85;;;;;;;15.92;49.25;102300.53;5034152;28;20493;-58
2021/10/13 07:10:35;;;;;;;8.40;3.92;;;;;;;16.00;49.25;102308.84;5034288;28;20021;-58
2021/10/13 07:13:00;;;;;;;6.05;4.15;;;;;;;16.04;48.56;102308.50;5033945;28;20021;-58
2021/10/13 07:15:26;;;;;;;6.80;4.00;;;;;;;16.10;47.99;102304.41;5034188;28;20087;-58
2021/10/13 07:17:51;;;;;;;10.30;4.68;;;;;;;16.15;48.34;102307.59;5016400;28;20033;-58
2021/10/13 07:20:17;;;;;;;12.35;4.20;;;;;;;16.16;48.61;102303.91;5016114;28;20032;-58
2021/10/13 07:22:42;;;;;;;7.25;3.47;;;;;;;16.22;48.54;102303.38;5034055;28;20030;-59
2021/10/13 07:25:09;;;;;;;7.28;4.28;;;;;;;16.30;49.16;102314.41;5034290;28;20436;-58
2021/10/13 07:27:35;;;;;;;10.00;4.30;;;;;;;16.33;48.67;102312.28;5016641;28;20501;-58
2021/10/13 07:30:02;;;;;;;9.20;3.85;;;;;;;16.40;48.94;102312.63;5033877;28;20029;-58
2021/10/13 07:32:29;;;;;;;7.45;3.85;;;;;;;16.47;48.76;102313.81;5034353;28;20096;-58
2021/10/13 07:34:55;;;;;;;11.20;4.88;;;;;;;16.56;47.90;102312.22;5034377;28;20481;-58
2021/10/13 07:37:20;;;;;;;9.35;4.25;;;;;;;16.65;48.16;102306.88;5034108;28;20033;-58
2021/10/13 07:39:46;;;;;;;8.60;4.35;;;;;;;16.76;48.14;102309.50;5034101;28;20418;-58
2021/10/13 07:42:13;;;;;;;7.10;4.00;;;;;;;16.83;48.94;102316.09;5017901;28;20037;-59
2021/10/13 07:44:38;;;;;;;10.05;4.15;;;;;;;16.96;48.05;102315.03;5020590;28;20022;-58
2021/10/13 07:47:04;;;;;;;7.63;3.65;;;;;;;17.11;47.96;102319.97;5020198;28;20040;-58
2021/10/13 07:49:29;;;;;;;5.80;3.60;;;;;;;17.21;48.46;102317.31;5038040;28;20029;-59
2021/10/13 07:51:54;;;;;;;7.90;4.38;;;;;;;17.29;47.94;102320.19;5038059;28;20045;-58
2021/10/13 07:54:20;;;;;;;11.48;4.78;;;;;;;17.34;47.46;102315.22;5038124;28;20029;-58
2021/10/13 07:56:47;;;;;;;9.45;4.13;;;;;;;17.40;48.90;102317.38;5037709;28;20049;-58
2021/10/13 07:59:13;;;;;;;14.10;4.25;;;;;;;17.42;48.01;102316.25;5038237;28;20032;-58
2021/10/13 08:01:38;;;;;;;6.53;4.25;;;;;;;17.51;47.16;102317.28;5037810;28;20421;-58
2021/10/13 08:04:04;;;;;;;7.35;4.15;;;;;;;17.62;47.25;102324.47;5020079;28;20022;-58
2021/10/13 08:06:29;;;;;;;5.05;4.20;;;;;;;17.77;47.17;102318.53;5037943;28;20028;-58
2021/10/13 08:08:54;;;;;;;6.57;3.72;;;;;;;17.87;47.62;102319.41;5038256;28;20032;-58
2021/10/13 08:11:20;;;;;;;12.27;4.30;;;;;;;17.96;47.50;102318.56;5038692;28;20060;-59
2021/10/13 08:13:45;;;;;;;9.85;3.92;;;;;;;18.07;47.10;102319.41;5038368;28;20025;-59
2021/10/13 08:16:11;;;;;;;9.73;3.67;;;;;;;18.13;47.69;102321.56;5038147;28;20363;-58
2021/10/13 08:18:36;;;;;;;9.85;4.70;;;;;;;18.23;47.43;102317.03;5038678;28;20116;-59
2021/10/13 08:21:02;;;;;;;5.88;4.20;;;;;;;18.29;47.07;102324.56;5038092;28;20021;-58
2021/10/13 08:23:27;;;;;;;7.22;3.53;;;;;;;18.38;47.29;102323.72;5037463;28;20092;-58
2021/10/13 08:25:55;;;;;;;10.32;4.25;;;;;;;18.46;47.03;102318.44;5037269;28;20029;-58
2021/10/13 08:28:21;;;;;;;6.10;4.38;;;;;;;18.53;47.96;102327.75;5037623;28;20022;-58
2021/10/13 08:30:47;;;;;;;8.27;4.18;;;;;;;18.64;46.77;102319.47;5037297;28;20033;-58
2021/10/13 08:33:12;;;;;;;6.68;3.90;;;;;;;18.76;47.02;102317.44;5037537;28;20041;-58
2021/10/13 08:35:37;;;;;;;5.68;4.03;;;;;;;18.92;47.18;102321.28;5037822;28;20037;-58
2021/10/13 08:38:03;;;;;;;7.97;3.72;;;;;;;19.09;46.87;102315.06;5037799;28;20053;-59
2021/10/13 08:40:28;;;;;;;9.10;3.55;;;;;;;19.00;46.87;102313.25;5037685;28;20585;-59
2021/10/13 08:42:56;;;;;;;11.25;3.67;;;;;;;18.98;47.02;102323.38;5037388;28;20026;-59
2021/10/13 08:45:23;;;;;;;11.23;4.00;;;;;;;18.96;47.41;102319.94;5037493;28;20029;-58
2021/10/13 08:47:49;;;;;;;9.50;4.43;;;;;;;19.07;47.46;102327.94;5037458;28;20069;-58
2021/10/13 08:50:14;;;;;;;11.25;3.45;;;;;;;19.14;47.04;102315.47;5037615;28;20105;-58
2021/10/13 08:52:39;;;;;;;6.97;3.53;;;;;;;19.23;47.47;102308.31;5037410;28;20052;-59
2021/10/13 08:55:07;;;;;;;6.45;3.75;;;;;;;19.25;47.36;102308.13;5036536;28;20028;-58
2021/10/13 08:57:32;;;;;;;6.97;3.53;;;;;;;19.32;47.37;102314.69;5037554;28;20029;-59
2021/10/13 08:59:57;;;;;;;10.68;4.07;;;;;;;19.40;46.98;102312.94;5037899;28;20025;-59
2021/10/13 09:02:39;;;;;;;10.10;3.88;;;;;;;19.55;46.79;102311.47;5037102;28;20107;-58
2021/10/13 09:05:12;;;;;;;8.02;4.05;;;;;;;19.77;46.81;102305.59;5037531;28;20026;-58
2021/10/13 09:07:38;;;;;;;12.35;3.88;;;;;;;19.86;46.39;102303.81;5037387;28;20390;-58
2021/10/13 09:10:05;;;;;;;8.13;3.95;;;;;;;19.96;46.62;102310.03;5019635;28;20548;-59
2021/10/13 09:12:36;;;;;;;7.13;3.33;;;;;;;20.15;46.61;102315.38;5037075;28;20017;-58
2021/10/13 09:15:11;;;;;;;8.23;3.95;;;;;;;20.25;46.08;102321.63;5037065;28;20104;-58
2021/10/13 09:17:50;;;;;;;8.85;3.17;;;;;;;20.41;46.18;102336.41;5037143;28;20053;-59
2021/10/13 09:20:17;;;;;;;3.47;2.60;;;;;;;20.58;46.09;102327.34;5037402;28;20382;-59
2021/10/13 09:23:03;;;;;;;6.53;3.03;;;;;;;20.94;46.00;102328.97;5037013;28;20028;-58
2021/10/13 09:25:29;;;;;;;5.32;3.50;;;;;;;21.12;46.03;102338.00;5037123;28;20029;-59
2021/10/13 09:27:55;;;;;;;11.20;3.80;;;;;;;21.24;45.48;102336.72;5036367;28;20049;-59
2021/10/13 09:30:31;;;;;;;9.02;3.30;;;;;;;21.40;45.15;102331.34;5036287;28;20040;-59
2021/10/13 09:33:12;;;;;;;6.35;3.95;;;;;;;21.48;44.99;102346.88;5035949;28;20052;-59
2021/10/13 09:35:45;;;;;;;9.25;4.60;;;;;;;21.63;45.78;102342.53;5036149;28;20026;-59
2021/10/13 09:38:21;;;;;;;4.82;2.97;;;;;;;21.65;45.88;102342.34;5036352;28;20032;-59
2021/10/13 09:40:48;;;;;;;8.15;3.75;;;;;;;21.66;45.03;102346.81;5035659;28;20568;-59
2021/10/13 09:43:33;;;;;;;7.47;3.25;;;;;;;21.66;45.96;102341.34;5035611;28;20022;-60
2021/10/13 09:46:14;;;;;;;12.80;3.80;;;;;;;22.30;44.13;102335.22;5035956;28;20022;-59
2021/10/13 09:48:58;;;;;;;7.68;3.50;;;;;;;22.85;43.26;102340.91;5017393;28;20029;-60
2021/10/13 09:51:24;;;;;;;12.65;3.75;;;;;;;22.66;44.67;102342.13;5035242;28;20035;-59
2021/10/13 09:53:51;;;;;;;8.48;3.50;;;;;;;22.61;44.81;102344.47;5035163;28;20551;-60
2021/10/13 09:56:46;;;;;;;5.03;3.10;;;;;;;23.78;42.93;102340.97;5036890;28;20176;-59
2021/10/13 09:59:16;;;;;;;6.80;3.20;;;;;;;24.49;42.06;102349.97;5014015;28;20529;-60
2021/10/13 10:01:48;;;;;;;5.13;3.10;;;;;;;25.06;41.11;102345.75;5034709;28;20073;-59
2021/10/13 10:04:19;;;;;;;6.75;3.10;;;;;;;24.97;42.27;102346.00;5017274;28;20025;-60
2021/10/13 10:06:49;;;;;;;5.05;2.53;;;;;;;24.83;42.54;102337.56;5017311;28;20072;-60
2021/10/13 10:09:19;;;;;;;8.48;2.63;;;;;;;25.07;41.73;102339.19;5034634;28;20052;-60
2021/10/13 10:11:47;;;;;;;5.20;3.22;;;;;;;25.15;42.07;102347.38;5034968;28;20017;-60
2021/10/13 10:14:31;;;;;;;5.30;2.22;;;;;;;25.61;41.51;102341.72;5034600;28;20025;-60
2021/10/13 10:16:56;;;;;;;10.18;2.30;;;;;;;25.61;41.52;102337.06;5034481;28;20022;-59
2021/10/13 10:19:23;;;;;;;6.60;2.33;;;;;;;25.38;41.53;102352.75;5034577;28;20029;-60
2021/10/13 10:22:06;;;;;;;6.88;2.20;;;;;;;25.16;41.78;102348.19;5034740;28;20108;-60
2021/10/13 10:24:33;;;;;;;3.97;1.98;;;;;;;24.97;42.39;102348.75;5034385;28;20103;-60
2021/10/13 10:27:23;;;;;;;5.32;2.20;;;;;;;24.84;42.23;102349.41;5034357;28;20090;-60
2021/10/13 10:30:14;;;;;;;5.38;2.00;;;;;;;24.72;42.07;102351.69;5034114;28;20021;-59
2021/10/13 10:32:41;;;;;;;3.08;1.50;;;;;;;24.74;41.62;102349.59;5034493;28;20100;-60
2021/10/13 10:35:09;;;;;;;2.97;1.42;;;;;;;24.69;42.18;102354.78;5034212;28;20478;-59
2021/10/13 10:37:45;;;;;;;5.93;1.60;;;;;;;24.51;41.49;102354.25;5034401;28;20017;-60
2021/10/13 10:40:25;;;;;;;2.30;1.38;;;;;;;24.16;41.86;102354.84;5034304;28;20052;-60
2021/10/13 10:43:04;;;;;;;4.53;1.52;;;;;;;23.94;42.54;102355.63;5034108;28;20041;-59
2021/10/13 10:45:35;;;;;;;3.85;1.60;;;;;;;23.80;42.05;102356.38;5034271;28;20025;-59
2021/10/13 10:48:00;;;;;;;3.20;1.25;;;;;;;24.09;42.27;102353.84;5034203;28;20025;-59
2021/10/13 10:50:29;;;;;;;5.72;1.45;;;;;;;23.83;42.36;102359.63;5034055;28;20033;-58
2021/10/13 10:53:13;;;;;;;3.95;1.48;;;;;;;23.60;42.08;102353.22;5034010;28;20057;-61
2021/10/13 10:55:40;;;;;;;1.90;0.98;;;;;;;23.58;42.26;102353.41;5033763;28;20494;-61
2021/10/13 10:58:21;;;;;;;5.07;1.30;;;;;;;23.68;42.36;102356.78;5033785;28;20497;-61
2021/10/13 11:00:58;;;;;;;3.50;1.50;;;;;;;23.80;42.07;102353.66;5033943;28;20367;-61
2021/10/13 11:03:27;;;;;;;5.95;1.40;;;;;;;24.03;42.19;102360.91;5033869;28;20021;-59
2021/10/13 11:05:56;;;;;;;4.70;1.45;;;;;;;24.19;41.60;102355.34;5033660;28;20497;-59
2021/10/13 11:08:22;;;;;;;2.88;1.05;;;;;;;24.44;41.04;102361.50;5033548;28;20022;-59
2021/10/13 11:10:47;;;;;;;2.47;0.80;;;;;;;24.87;40.59;102355.34;5016200;28;20041;-59
2021/10/13 11:13:12;;;;;;;3.35;0.85;;;;;;;25.49;39.69;102371.53;5033606;28;20509;-59
2021/10/13 11:15:39;;;;;;;5.47;1.17;;;;;;;25.72;39.92;102355.81;5033535;28;20382;-59
2021/10/13 11:18:18;;;;;;;2.88;0.60;;;;;;;25.62;39.76;102358.00;5032957;28;20025;-60
2021/10/13 11:20:44;;;;;;;2.50;0.40;;;;;;;25.69;40.00;102363.56;5033551;28;20025;-59
2021/10/13 11:23:11;;;;;;;2.53;0.60;;;;;;;26.47;38.50;102355.44;5015721;28;20052;-59
2021/10/13 11:25:37;;;;;;;5.25;0.60;;;;;;;27.33;37.37;102357.03;5015838;28;20052;-60
2021/10/13 11:28:11;;;;;;;2.15;0.50;;;;;;;27.32;37.26;102352.56;5033516;28;20026;-60
2021/10/13 11:30:44;;;;;;;1.10;0.57;;;;;;;27.35;37.13;102354.94;5015623;28;20025;-59